Time;durP1;ratioP1;P1;durP2;ratioP2;P2;SDS_P1;SDS_P2;PMS_P1;PMS_P2;Temp;Humidity;BMP_temperature;BMP_pressure;BME280_temperature;BME280_humidity;BME280_pressure;Samples;Min_cycle;Max_cycle;Signal;HPM_P1;HPM_P2
2022/11/15 00:00:33;;;;;;;31.40;25.25;;;6.40;99.90;;;;;;5054843;28;20052;-43
2022/11/15 00:02:58;;;;;;;33.33;25.30;;;6.40;99.90;;;;;;5055434;28;20048;-47
2022/11/15 00:05:24;;;;;;;31.90;25.67;;;6.50;99.90;;;;;;5055988;28;20041;-42
2022/11/15 00:07:50;;;;;;;32.78;26.08;;;6.50;99.90;;;;;;5056508;28;20064;-47
2022/11/15 00:10:16;;;;;;;33.70;27.05;;;6.60;99.90;;;;;;5055679;28;20053;-43
2022/11/15 00:12:41;;;;;;;33.47;26.70;;;6.70;99.90;;;;;;5055914;28;20595;-46
2022/11/15 00:15:07;;;;;;;34.30;25.95;;;6.70;99.90;;;;;;5055077;28;20185;-47
2022/11/15 00:17:33;;;;;;;34.35;26.10;;;6.80;99.90;;;;;;5055623;28;20080;-44
2022/11/15 00:19:58;;;;;;;35.00;26.15;;;6.80;99.90;;;;;;5054920;28;20222;-49
2022/11/15 00:22:24;;;;;;;34.28;26.02;;;6.80;99.90;;;;;;5051428;28;20485;-47
2022/11/15 00:24:50;;;;;;;32.35;25.08;;;6.90;99.90;;;;;;5055410;28;20502;-48
2022/11/15 00:27:15;;;;;;;33.58;24.98;;;6.90;99.90;;;;;;5055611;28;20051;-44
2022/11/15 00:29:44;;;;;;;32.55;25.23;;;6.90;99.90;;;;;;5055025;28;20080;-43
2022/11/15 00:32:10;;;;;;;33.20;25.73;;;6.80;99.90;;;;;;5055119;28;20053;-45
2022/11/15 00:34:36;;;;;;;30.38;23.80;;;6.90;99.90;;;;;;5055062;28;20049;-41
2022/11/15 00:37:01;;;;;;;31.45;24.40;;;6.90;99.90;;;;;;5054827;28;20451;-45
2022/11/15 00:39:27;;;;;;;32.60;24.95;;;6.90;99.90;;;;;;5054224;28;20102;-46
2022/11/15 00:41:53;;;;;;;32.53;26.20;;;6.90;99.90;;;;;;5050746;28;20048;-44
2022/11/15 00:44:19;;;;;;;33.40;27.30;;;6.90;99.90;;;;;;5055138;28;20775;-44
2022/11/15 00:46:44;;;;;;;37.03;27.63;;;6.90;99.90;;;;;;5054169;28;20567;-48
2022/11/15 00:49:10;;;;;;;34.55;27.85;;;6.90;99.90;;;;;;5054597;28;20045;-47
2022/11/15 00:51:36;;;;;;;36.78;29.67;;;6.90;99.90;;;;;;5055142;28;20131;-46
2022/11/15 00:54:01;;;;;;;36.78;29.90;;;6.90;99.90;;;;;;5054388;28;20052;-44
2022/11/15 00:56:27;;;;;;;35.95;29.58;;;6.90;99.90;;;;;;5054565;28;20041;-45
2022/11/15 00:58:53;;;;;;;38.72;29.73;;;6.80;99.90;;;;;;5054136;28;20052;-48
2022/11/15 01:01:18;;;;;;;38.28;31.02;;;6.80;99.90;;;;;;5053804;28;20501;-46
2022/11/15 01:03:44;;;;;;;37.90;30.83;;;6.80;99.90;;;;;;5054566;28;20060;-43
2022/11/15 01:06:11;;;;;;;36.22;29.02;;;6.80;99.90;;;;;;5054829;28;20049;-44
2022/11/15 01:08:38;;;;;;;38.33;31.63;;;6.80;99.90;;;;;;5054397;28;20553;-44
2022/11/15 01:11:10;;;;;;;39.85;32.05;;;6.80;99.90;;;;;;5054799;28;20204;-42
2022/11/15 01:13:37;;;;;;;39.95;31.73;;;6.70;99.90;;;;;;5039356;28;20071;-47
2022/11/15 01:16:16;;;;;;;42.67;32.47;;;6.70;99.90;;;;;;5054336;28;20419;-46
2022/11/15 01:18:43;;;;;;;38.97;30.98;;;6.70;99.90;;;;;;5054488;28;20060;-46
2022/11/15 01:21:11;;;;;;;39.03;32.38;;;6.70;99.90;;;;;;5052655;28;20051;-44
2022/11/15 01:23:37;;;;;;;40.03;31.58;;;6.70;99.90;;;;;;5053349;28;20139;-44
2022/11/15 01:26:05;;;;;;;41.53;31.45;;;6.70;99.90;;;;;;5053702;28;20052;-44
2022/11/15 01:28:32;;;;;;;41.65;31.40;;;6.50;99.90;;;;;;5053670;28;20132;-46
2022/11/15 01:31:03;;;;;;;43.88;31.67;;;6.50;99.90;;;;;;5053568;28;20068;-44
2022/11/15 01:33:29;;;;;;;41.45;28.85;;;6.50;99.90;;;;;;5053726;28;20052;-46
2022/11/15 01:35:55;;;;;;;38.70;29.83;;;6.40;99.90;;;;;;5054401;28;20040;-45
2022/11/15 01:38:21;;;;;;;37.72;28.20;;;6.40;99.90;;;;;;5054294;28;20223;-44
2022/11/15 01:40:47;;;;;;;40.28;27.88;;;6.40;99.90;;;;;;5032413;28;20497;-44
2022/11/15 01:43:20;;;;;;;38.83;27.88;;;6.40;99.90;;;;;;5054407;28;20179;-44
2022/11/15 01:46:00;;;;;;;37.28;28.45;;;6.40;99.90;;;;;;5052921;28;20411;-46
2022/11/15 01:48:31;;;;;;;37.85;28.48;;;6.40;99.90;;;;;;5053941;28;20486;-43
2022/11/15 01:50:59;;;;;;;40.53;29.15;;;6.30;99.90;;;;;;5054386;28;20204;-47
2022/11/15 01:53:26;;;;;;;39.42;26.00;;;6.30;99.90;;;;;;5053214;28;20049;-47
2022/11/15 01:55:53;;;;;;;39.72;28.08;;;6.40;99.90;;;;;;5054526;28;20094;-48
2022/11/15 01:58:19;;;;;;;40.35;27.67;;;6.30;99.90;;;;;;5053238;28;20052;-47
2022/11/15 02:00:45;;;;;;;40.72;26.98;;;6.30;99.90;;;;;;5054441;28;20091;-44
2022/11/15 02:03:10;;;;;;;42.00;28.83;;;6.40;99.90;;;;;;5053607;28;20376;-42
2022/11/15 02:05:37;;;;;;;40.15;28.77;;;6.40;99.90;;;;;;5053271;28;20527;-47
2022/11/15 02:08:03;;;;;;;39.88;27.80;;;6.40;99.90;;;;;;5052459;28;20071;-46
2022/11/15 02:10:28;;;;;;;42.70;29.50;;;6.40;99.90;;;;;;5054243;28;20048;-46
2022/11/15 02:12:56;;;;;;;36.22;26.80;;;6.40;99.90;;;;;;5051975;28;20541;-45
2022/11/15 02:15:26;;;;;;;43.22;28.70;;;6.40;99.90;;;;;;5054107;28;20091;-47
2022/11/15 02:18:18;;;;;;;42.28;26.95;;;6.40;99.90;;;;;;5054260;28;20052;-48
2022/11/15 02:21:09;;;;;;;44.85;29.33;;;6.40;99.90;;;;;;5054578;28;20052;-46
2022/11/15 02:24:06;;;;;;;46.08;30.67;;;6.40;99.90;;;;;;5053152;28;20123;-43
2022/11/15 02:27:10;;;;;;;45.60;28.50;;;6.40;99.90;;;;;;5057492;28;20082;-43
2022/11/15 02:30:13;;;;;;;44.10;28.48;;;6.50;99.90;;;;;;5056901;28;20487;-43
2022/11/15 02:33:08;;;;;;;45.97;30.15;;;6.50;99.90;;;;;;5001084;28;20148;-42
2022/11/15 02:36:02;;;;;;;47.45;30.60;;;6.50;99.90;;;;;;4936413;29;20118;-46
2022/11/15 02:38:51;;;;;;;41.90;29.05;;;6.50;99.90;;;;;;4936314;29;20082;-48
2022/11/15 02:41:25;;;;;;;53.70;31.58;;;6.50;99.90;;;;;;4937072;29;20774;-43
2022/11/15 02:44:08;;;;;;;48.03;31.60;;;6.50;99.90;;;;;;4921663;29;20056;-42
2022/11/15 02:47:13;;;;;;;49.38;29.92;;;6.60;99.90;;;;;;4917523;29;20069;-43
2022/11/15 02:49:50;;;;;;;47.83;28.85;;;6.60;99.90;;;;;;4935977;29;20062;-48
2022/11/15 02:52:26;;;;;;;51.92;30.40;;;6.60;99.90;;;;;;4920333;29;20058;-44
2022/11/15 02:54:56;;;;;;;49.83;30.55;;;6.70;99.90;;;;;;4920498;29;20402;-47
2022/11/15 02:57:51;;;;;;;50.65;31.00;;;6.70;99.90;;;;;;4936007;29;20062;-45
2022/11/15 03:00:21;;;;;;;55.58;30.48;;;6.70;99.90;;;;;;4878731;29;20071;-44
2022/11/15 03:03:21;;;;;;;50.53;30.00;;;6.70;99.90;;;;;;4879759;29;20199;-41
2022/11/15 03:06:11;;;;;;;57.67;30.80;;;6.80;99.90;;;;;;4843131;29;20057;-44
2022/11/15 03:08:45;;;;;;;55.88;31.38;;;6.80;99.90;;;;;;4844204;29;20616;-42
2022/11/15 03:11:17;;;;;;;59.58;31.85;;;6.80;99.90;;;;;;4891720;29;20063;-42
2022/11/15 03:14:03;;;;;;;57.47;31.30;;;6.80;99.90;;;;;;4936505;29;20134;-46
2022/11/15 03:16:38;;;;;;;57.47;32.38;;;6.90;99.90;;;;;;4936149;29;20218;-47
2022/11/15 03:19:17;;;;;;;58.38;32.35;;;6.80;99.90;;;;;;4935207;29;20150;-42
2022/11/15 03:21:44;;;;;;;64.22;33.33;;;6.90;99.90;;;;;;4904745;29;20103;-43
2022/11/15 03:24:14;;;;;;;60.83;34.30;;;6.90;99.90;;;;;;4916903;29;20179;-43
2022/11/15 03:26:42;;;;;;;62.22;34.13;;;6.90;99.90;;;;;;4916529;29;20095;-45
2022/11/15 03:29:17;;;;;;;70.03;34.60;;;6.90;99.90;;;;;;4916212;29;20067;-45
2022/11/15 03:31:48;;;;;;;63.90;34.97;;;7.00;99.90;;;;;;4916504;29;20578;-44
2022/11/15 03:34:46;;;;;;;67.35;34.20;;;7.00;99.90;;;;;;4931492;28;20122;-44
2022/11/15 03:37:14;;;;;;;67.45;32.85;;;7.10;99.90;;;;;;4947444;28;20066;-44
2022/11/15 03:39:40;;;;;;;74.78;35.90;;;7.10;99.90;;;;;;4973741;28;20050;-46
2022/11/15 03:42:30;;;;;;;77.13;37.22;;;7.10;99.90;;;;;;5038198;28;20064;-42
2022/11/15 03:45:10;;;;;;;68.65;33.33;;;7.10;99.90;;;;;;5056463;28;20040;-43
2022/11/15 03:47:45;;;;;;;60.65;32.63;;;7.20;99.90;;;;;;5056132;28;20109;-42
2022/11/15 03:50:18;;;;;;;75.85;37.53;;;7.20;99.90;;;;;;5054963;28;20058;-49
2022/11/15 03:52:46;;;;;;;75.17;35.17;;;7.30;99.90;;;;;;5055755;28;20434;-44
2022/11/15 03:55:16;;;;;;;81.22;36.15;;;7.20;99.90;;;;;;5056131;28;20681;-42
2022/11/15 03:57:42;;;;;;;75.22;35.70;;;7.30;99.90;;;;;;5055444;28;20487;-43
2022/11/15 04:00:08;;;;;;;77.55;36.33;;;7.30;99.90;;;;;;5055180;28;20079;-46
2022/11/15 04:02:34;;;;;;;81.80;36.30;;;7.30;99.90;;;;;;5056275;28;20088;-46
2022/11/15 04:04:59;;;;;;;81.10;36.42;;;7.30;99.90;;;;;;5056354;28;20135;-48
2022/11/15 04:07:25;;;;;;;74.30;36.40;;;7.30;99.90;;;;;;5056611;28;20072;-43
2022/11/15 04:10:03;;;;;;;71.90;35.92;;;7.40;99.90;;;;;;5056090;28;20048;-45
2022/11/15 04:12:33;;;;;;;71.28;34.45;;;7.40;99.90;;;;;;5056260;28;20052;-48
2022/11/15 04:15:08;;;;;;;70.13;33.90;;;7.50;99.90;;;;;;5054899;28;20495;-45
2022/11/15 04:17:41;;;;;;;75.53;35.05;;;7.40;99.90;;;;;;5055885;28;20286;-44
2022/11/15 04:25:43;;;;;;;79.50;36.83;;;7.50;99.90;;;;;;5056252;28;20056;-44
2022/11/15 04:28:10;;;;;;;75.30;36.75;;;7.60;99.90;;;;;;5054760;28;20127;-43
2022/11/15 04:30:35;;;;;;;77.13;38.00;;;7.50;99.90;;;;;;5055361;28;20048;-43
2022/11/15 04:33:01;;;;;;;74.35;36.53;;;7.50;99.90;;;;;;5053574;28;20052;-42
2022/11/15 04:35:27;;;;;;;75.82;37.42;;;7.70;99.90;;;;;;5055993;28;20442;-45
2022/11/15 04:37:54;;;;;;;82.47;38.08;;;7.60;99.90;;;;;;5054561;28;20153;-45
2022/11/15 04:40:20;;;;;;;92.40;39.85;;;7.80;99.90;;;;;;5052580;28;20044;-46
2022/11/15 04:42:45;;;;;;;80.38;39.00;;;7.80;99.90;;;;;;5036128;28;20428;-43
2022/11/15 04:45:11;;;;;;;93.28;41.25;;;7.80;99.90;;;;;;5055051;28;20462;-42
2022/11/15 04:47:37;;;;;;;93.38;42.65;;;7.80;99.90;;;;;;5053295;28;20218;-42
2022/11/15 04:50:03;;;;;;;100.75;43.80;;;7.80;99.90;;;;;;5054881;28;20790;-46
2022/11/15 04:52:29;;;;;;;96.00;44.20;;;7.90;99.90;;;;;;5053689;28;20064;-50
2022/11/15 04:54:54;;;;;;;95.65;43.72;;;7.90;99.90;;;;;;5056175;28;20044;-45
2022/11/15 04:57:20;;;;;;;109.63;46.88;;;8.00;99.90;;;;;;5055424;28;20045;-47
2022/11/15 04:59:46;;;;;;;102.13;47.40;;;8.00;99.90;;;;;;5055482;28;20041;-42
2022/11/15 05:02:12;;;;;;;101.78;45.85;;;8.10;99.90;;;;;;5048117;28;20105;-41
2022/11/15 05:04:37;;;;;;;99.97;45.05;;;8.00;99.90;;;;;;5053512;28;20139;-48
2022/11/15 05:07:06;;;;;;;101.00;48.30;;;8.10;99.90;;;;;;5053497;28;20438;-45
2022/11/15 05:09:31;;;;;;;94.13;46.50;;;8.10;99.90;;;;;;5054708;28;20075;-42
2022/11/15 05:11:57;;;;;;;98.65;47.85;;;8.10;99.90;;;;;;5054525;28;20159;-45
2022/11/15 05:14:23;;;;;;;111.63;49.15;;;8.20;99.90;;;;;;5055354;28;20498;-45
2022/11/15 05:16:49;;;;;;;107.60;49.72;;;8.20;99.90;;;;;;5054723;28;20113;-46
2022/11/15 05:19:14;;;;;;;111.40;50.70;;;8.30;99.90;;;;;;5054764;28;20044;-45
2022/11/15 05:21:40;;;;;;;123.88;55.80;;;8.30;99.90;;;;;;5051002;28;20155;-45
2022/11/15 05:24:06;;;;;;;118.78;50.47;;;8.40;99.90;;;;;;5054653;28;20052;-44
2022/11/15 05:26:32;;;;;;;122.00;53.85;;;8.40;99.90;;;;;;5054151;28;20046;-42
2022/11/15 05:28:59;;;;;;;141.32;54.33;;;8.50;99.90;;;;;;5053611;28;20085;-49
2022/11/15 05:31:25;;;;;;;127.70;54.63;;;8.50;99.90;;;;;;5053829;28;20668;-45
2022/11/15 05:33:53;;;;;;;141.57;57.75;;;8.60;99.90;;;;;;5054397;28;20458;-46
2022/11/15 05:36:34;;;;;;;135.90;55.25;;;8.60;99.90;;;;;;5054199;28;20040;-43
2022/11/15 05:39:00;;;;;;;136.50;54.70;;;8.60;99.90;;;;;;5053680;28;20097;-47
2022/11/15 05:41:48;;;;;;;152.68;58.15;;;8.60;99.90;;;;;;5050303;28;20071;-46
2022/11/15 05:44:17;;;;;;;142.27;55.42;;;8.60;99.90;;;;;;5053946;28;20067;-44
2022/11/15 05:46:44;;;;;;;144.00;57.35;;;8.60;99.90;;;;;;5054744;28;20056;-47
2022/11/15 05:49:13;;;;;;;170.75;61.05;;;8.60;99.90;;;;;;5053290;28;20140;-47
2022/11/15 05:51:41;;;;;;;176.20;62.38;;;8.80;99.90;;;;;;5053556;28;20040;-43
2022/11/15 05:54:07;;;;;;;152.18;59.90;;;8.70;99.90;;;;;;5054043;28;20546;-42
2022/11/15 05:56:33;;;;;;;160.68;59.97;;;8.80;99.90;;;;;;5054603;28;20472;-43
2022/11/15 05:58:59;;;;;;;181.07;62.75;;;8.80;99.90;;;;;;5053383;28;20053;-46
2022/11/15 06:01:25;;;;;;;156.05;60.22;;;8.80;99.90;;;;;;5053634;28;20048;-48
2022/11/15 06:03:51;;;;;;;152.93;60.28;;;8.80;99.90;;;;;;5054104;28;20055;-46
2022/11/15 06:06:16;;;;;;;148.80;57.95;;;8.80;99.90;;;;;;5054430;28;20044;-44
2022/11/15 06:08:42;;;;;;;158.77;59.28;;;8.90;99.90;;;;;;5052740;28;20597;-43
2022/11/15 06:11:08;;;;;;;148.50;59.30;;;8.90;99.90;;;;;;5053853;28;20674;-49
2022/11/15 06:13:34;;;;;;;147.57;55.00;;;8.90;99.90;;;;;;5053641;28;20074;-42
2022/11/15 06:16:00;;;;;;;156.30;59.20;;;8.90;99.90;;;;;;5054001;28;20053;-48
2022/11/15 06:18:26;;;;;;;152.35;62.20;;;8.90;99.90;;;;;;5053482;28;20529;-43
2022/11/15 06:20:52;;;;;;;146.45;60.33;;;9.00;99.90;;;;;;5051828;28;20051;-48
2022/11/15 06:23:17;;;;;;;154.57;59.97;;;9.00;99.90;;;;;;5050508;28;20082;-48
2022/11/15 06:25:43;;;;;;;144.55;60.53;;;9.00;99.90;;;;;;5054671;28;20044;-45
2022/11/15 06:28:09;;;;;;;143.05;59.38;;;9.00;99.90;;;;;;5053233;28;20608;-48
2022/11/15 06:30:34;;;;;;;144.00;59.20;;;9.00;99.90;;;;;;5053987;28;20080;-47
2022/11/15 06:33:01;;;;;;;131.93;57.50;;;9.10;99.90;;;;;;5053311;28;20095;-43
2022/11/15 06:35:28;;;;;;;142.27;58.28;;;9.20;99.90;;;;;;5054408;28;20083;-44
2022/11/15 06:37:55;;;;;;;143.30;57.38;;;9.10;99.90;;;;;;5053390;28;20048;-42
2022/11/15 06:40:20;;;;;;;136.77;60.13;;;9.10;99.90;;;;;;5049729;28;20123;-43
2022/11/15 06:42:46;;;;;;;138.95;58.60;;;9.20;99.90;;;;;;5052529;28;20064;-44
2022/11/15 06:45:11;;;;;;;132.13;60.85;;;9.20;99.90;;;;;;5053786;28;20120;-45
2022/11/15 06:47:47;;;;;;;122.22;57.25;;;9.20;99.90;;;;;;5052557;28;20049;-46
2022/11/15 06:50:13;;;;;;;128.23;56.25;;;9.30;99.90;;;;;;5052809;28;20045;-50
2022/11/15 06:52:38;;;;;;;122.72;56.38;;;9.30;99.90;;;;;;5051621;28;20132;-45
2022/11/15 06:55:04;;;;;;;115.20;56.13;;;9.40;99.90;;;;;;5053339;28;20056;-44
2022/11/15 06:57:30;;;;;;;117.18;54.92;;;9.30;99.90;;;;;;5053783;28;20045;-43
2022/11/15 06:59:56;;;;;;;118.50;55.80;;;9.50;99.90;;;;;;5052730;28;20182;-44
2022/11/15 07:02:21;;;;;;;115.57;55.05;;;9.50;99.90;;;;;;5051378;28;20075;-50
2022/11/15 07:04:47;;;;;;;105.95;54.78;;;9.40;99.90;;;;;;5053597;28;20063;-45
2022/11/15 07:07:13;;;;;;;111.50;53.08;;;9.40;99.90;;;;;;5053833;28;20056;-43
2022/11/15 07:09:38;;;;;;;106.40;53.67;;;9.40;99.90;;;;;;5052820;28;20097;-43
2022/11/15 07:12:04;;;;;;;96.95;52.30;;;9.50;99.90;;;;;;5056377;28;20053;-42
2022/11/15 07:14:30;;;;;;;98.55;53.42;;;9.60;99.90;;;;;;5055360;28;20040;-43
2022/11/15 07:16:55;;;;;;;97.90;50.90;;;9.60;99.90;;;;;;5056957;28;20097;-42
2022/11/15 07:19:21;;;;;;;94.82;50.25;;;9.60;99.90;;;;;;5055939;28;20532;-46
2022/11/15 07:21:47;;;;;;;95.30;51.25;;;9.50;99.90;;;;;;5049863;28;20041;-44
2022/11/15 07:24:13;;;;;;;83.13;48.13;;;9.50;99.90;;;;;;5048415;28;20052;-46
2022/11/15 07:26:38;;;;;;;84.38;47.95;;;9.70;99.90;;;;;;5057051;28;20080;-45
2022/11/15 07:29:04;;;;;;;81.90;46.30;;;9.50;99.90;;;;;;5056829;28;20060;-42
2022/11/15 07:31:29;;;;;;;85.63;46.75;;;9.50;99.90;;;;;;5056499;28;20535;-48
2022/11/15 07:33:55;;;;;;;84.47;45.45;;;9.50;99.90;;;;;;5057584;28;20452;-46
2022/11/15 07:36:21;;;;;;;89.05;46.60;;;9.60;99.90;;;;;;5056388;28;20498;-46
2022/11/15 07:38:46;;;;;;;84.13;46.50;;;9.50;99.90;;;;;;5055269;28;20052;-44
2022/11/15 07:41:12;;;;;;;83.30;46.30;;;9.60;99.90;;;;;;5050072;28;20055;-41
2022/11/15 07:43:37;;;;;;;86.90;46.33;;;9.50;99.90;;;;;;5056669;28;20044;-47
2022/11/15 07:46:08;;;;;;;79.15;46.08;;;9.70;99.90;;;;;;5056068;28;20407;-50
2022/11/15 07:48:35;;;;;;;81.03;45.95;;;9.70;99.90;;;;;;5054586;28;20190;-41
2022/11/15 07:51:02;;;;;;;96.05;48.70;;;9.50;99.90;;;;;;5055939;28;20059;-42
2022/11/15 07:53:27;;;;;;;88.07;47.03;;;9.60;99.90;;;;;;5057068;28;20063;-44
2022/11/15 07:55:53;;;;;;;89.03;47.33;;;9.60;99.90;;;;;;5056607;28;20044;-47
2022/11/15 07:58:19;;;;;;;83.70;47.50;;;9.60;99.90;;;;;;5056078;28;20048;-47
2022/11/15 08:00:45;;;;;;;77.13;45.70;;;9.60;99.90;;;;;;5056840;28;20071;-48
2022/11/15 08:03:13;;;;;;;85.05;46.45;;;9.60;99.90;;;;;;5056033;28;20059;-46
2022/11/15 08:05:40;;;;;;;77.65;43.90;;;9.80;99.90;;;;;;5054939;28;20560;-46
2022/11/15 08:08:06;;;;;;;87.95;45.20;;;9.80;99.90;;;;;;5055969;28;20074;-43
2022/11/15 08:10:33;;;;;;;75.13;45.15;;;9.80;99.90;;;;;;5056245;28;20119;-46
2022/11/15 08:12:59;;;;;;;72.35;44.75;;;9.90;99.90;;;;;;5056005;28;20087;-49
2022/11/15 08:15:25;;;;;;;75.35;44.65;;;9.80;99.90;;;;;;5056362;28;20529;-51
2022/11/15 08:17:57;;;;;;;69.75;43.63;;;10.00;99.90;;;;;;5056169;28;20435;-46
2022/11/15 08:20:24;;;;;;;71.47;43.10;;;9.90;99.90;;;;;;5043162;28;20092;-43
2022/11/15 08:22:49;;;;;;;70.45;42.30;;;10.10;99.90;;;;;;5050553;28;20052;-45
2022/11/15 08:25:15;;;;;;;68.97;43.35;;;10.00;99.90;;;;;;5054644;28;20052;-51
2022/11/15 08:27:41;;;;;;;63.90;42.03;;;10.10;99.90;;;;;;5052979;28;20637;-46
2022/11/15 08:30:07;;;;;;;61.83;39.60;;;10.00;99.90;;;;;;5055248;28;20418;-47
2022/11/15 08:32:33;;;;;;;62.63;42.47;;;10.10;99.90;;;;;;5048441;28;20041;-47
2022/11/15 08:34:58;;;;;;;67.13;43.13;;;10.00;99.90;;;;;;5050188;28;20048;-44
2022/11/15 08:37:24;;;;;;;66.63;44.90;;;10.10;99.90;;;;;;5054573;28;20052;-48
2022/11/15 08:39:49;;;;;;;64.20;41.10;;;10.00;99.90;;;;;;5056004;28;20101;-48
2022/11/15 08:42:16;;;;;;;64.35;44.20;;;10.10;99.90;;;;;;5049890;28;20056;-49
2022/11/15 08:44:42;;;;;;;62.25;41.55;;;10.10;99.90;;;;;;5055096;28;20479;-43
2022/11/15 08:47:10;;;;;;;56.40;39.08;;;10.30;99.90;;;;;;5055542;28;20222;-46
2022/11/15 08:49:36;;;;;;;59.00;40.55;;;10.20;99.90;;;;;;5054849;28;20526;-46
2022/11/15 08:52:02;;;;;;;60.55;41.55;;;10.30;99.90;;;;;;5054486;28;20402;-42
2022/11/15 08:54:28;;;;;;;63.95;40.03;;;10.20;99.90;;;;;;5055432;28;20572;-44
2022/11/15 08:56:53;;;;;;;63.72;40.92;;;10.20;99.90;;;;;;5055415;28;20253;-46
2022/11/15 08:59:19;;;;;;;58.90;41.28;;;10.40;99.90;;;;;;5054146;28;20578;-45
2022/11/15 09:01:44;;;;;;;63.38;39.88;;;10.40;99.90;;;;;;5053631;28;20051;-48
2022/11/15 09:04:10;;;;;;;58.50;39.00;;;10.40;99.90;;;;;;5050407;28;20048;-44
2022/11/15 09:06:36;;;;;;;53.13;37.97;;;10.50;99.90;;;;;;5046151;28;20184;-42
2022/11/15 09:09:02;;;;;;;61.53;40.15;;;10.50;99.90;;;;;;5049586;28;20142;-46
2022/11/15 09:11:28;;;;;;;54.42;37.70;;;10.50;99.90;;;;;;5051447;28;20040;-45
2022/11/15 09:13:53;;;;;;;53.70;37.58;;;10.40;99.90;;;;;;5052054;28;20052;-46
2022/11/15 09:16:19;;;;;;;53.03;36.55;;;10.60;99.90;;;;;;5052723;28;20043;-45
2022/11/15 09:18:45;;;;;;;55.72;36.47;;;10.70;99.90;;;;;;5052172;28;20044;-48
2022/11/15 09:21:11;;;;;;;50.35;35.92;;;10.60;99.90;;;;;;5049198;28;20071;-45
2022/11/15 09:23:37;;;;;;;53.70;36.55;;;10.60;99.90;;;;;;5045404;28;20046;-45
2022/11/15 09:26:04;;;;;;;48.28;36.45;;;10.70;99.90;;;;;;5040899;28;20049;-46
2022/11/15 09:28:31;;;;;;;52.20;36.63;;;10.70;99.90;;;;;;5032817;28;20470;-45
2022/11/15 09:30:58;;;;;;;50.65;35.95;;;10.70;99.90;;;;;;5033895;28;20080;-43
2022/11/15 09:33:24;;;;;;;46.72;33.97;;;10.70;99.90;;;;;;5045961;28;20060;-44
2022/11/15 09:35:50;;;;;;;50.38;35.90;;;10.70;99.90;;;;;;5049383;28;20067;-48
2022/11/15 09:38:16;;;;;;;47.40;34.92;;;10.80;99.90;;;;;;5051944;28;20044;-44
2022/11/15 09:40:42;;;;;;;50.95;36.35;;;10.80;99.90;;;;;;5049755;28;20060;-44
2022/11/15 09:43:23;;;;;;;43.33;34.95;;;10.90;99.90;;;;;;5053159;28;20048;-48
2022/11/15 09:46:14;;;;;;;44.00;33.45;;;10.90;99.90;;;;;;5054136;28;20106;-46
2022/11/15 09:48:57;;;;;;;41.05;32.60;;;11.10;99.90;;;;;;5051355;28;20044;-45
2022/11/15 09:51:27;;;;;;;43.40;32.03;;;11.00;99.90;;;;;;5051855;28;20051;-47
2022/11/15 09:54:11;;;;;;;43.63;32.13;;;11.10;99.90;;;;;;5053180;28;20157;-47
2022/11/15 09:56:41;;;;;;;41.40;31.13;;;11.10;99.90;;;;;;5052891;28;20056;-48
2022/11/15 09:59:27;;;;;;;44.15;31.92;;;11.20;99.90;;;;;;5051678;28;20052;-43
2022/11/15 10:02:15;;;;;;;44.08;33.40;;;11.20;99.90;;;;;;5053234;28;20572;-47
2022/11/15 10:04:41;;;;;;;42.78;32.42;;;11.10;99.90;;;;;;5054247;28;20487;-43
2022/11/15 10:07:16;;;;;;;42.17;31.30;;;11.20;99.90;;;;;;5053549;28;20516;-46
2022/11/15 10:09:52;;;;;;;42.35;32.08;;;11.10;99.90;;;;;;5052437;28;20343;-43
2022/11/15 10:12:18;;;;;;;40.92;31.15;;;11.20;99.90;;;;;;5053134;28;20056;-48
2022/11/15 10:14:47;;;;;;;40.55;31.20;;;11.20;99.90;;;;;;5053605;28;20486;-45
2022/11/15 10:17:42;;;;;;;34.95;28.90;;;11.20;99.90;;;;;;5035512;28;20067;-47
2022/11/15 10:20:17;;;;;;;40.53;30.17;;;11.20;99.90;;;;;;5053510;28;20813;-46
2022/11/15 10:22:52;;;;;;;39.53;30.67;;;11.20;99.90;;;;;;5049297;28;20609;-46
2022/11/15 10:25:19;;;;;;;39.30;30.30;;;11.20;99.90;;;;;;5054008;28;20037;-51
2022/11/15 10:27:53;;;;;;;40.80;30.63;;;11.20;99.90;;;;;;5053143;28;20048;-46
2022/11/15 10:30:20;;;;;;;35.45;29.50;;;11.20;99.90;;;;;;5053877;28;20056;-45
2022/11/15 10:32:47;;;;;;;37.42;29.27;;;11.30;99.90;;;;;;5044767;28;20054;-45
2022/11/15 10:35:28;;;;;;;37.70;30.15;;;11.40;99.90;;;;;;5053859;28;20051;-49
2022/11/15 10:38:09;;;;;;;33.38;27.83;;;11.40;99.90;;;;;;5040292;28;20091;-44
2022/11/15 10:40:36;;;;;;;37.88;29.77;;;11.40;99.90;;;;;;5049175;28;20132;-48
2022/11/15 10:43:09;;;;;;;30.52;26.17;;;11.50;99.90;;;;;;5053034;28;20048;-43
2022/11/15 10:45:35;;;;;;;;;;;11.50;99.90;;;;;;5056927;28;20056;-46
2022/11/15 10:48:13;;;;;;;30.63;24.48;;;11.50;99.90;;;;;;5056605;28;19931;-44
2022/11/15 10:50:44;;;;;;;28.10;24.00;;;11.50;99.90;;;;;;5057453;28;20429;-43
2022/11/15 10:53:20;;;;;;;30.30;23.77;;;11.50;99.90;;;;;;5057835;28;20048;-48
2022/11/15 10:55:49;;;;;;;28.95;24.17;;;11.60;99.90;;;;;;5057175;28;20055;-43
2022/11/15 10:58:42;;;;;;;27.08;20.15;;;11.60;99.90;;;;;;5056962;28;20080;-43
2022/11/15 11:01:18;;;;;;;22.37;19.13;;;11.60;99.90;;;;;;5055402;28;20098;-41
2022/11/15 11:04:05;;;;;;;27.45;20.50;;;11.60;99.90;;;;;;5057231;28;20287;-41
2022/11/15 11:06:47;;;;;;;21.52;19.23;;;11.50;99.90;;;;;;5056007;28;20056;-40
2022/11/15 11:09:25;;;;;;;22.15;19.63;;;11.60;99.90;;;;;;5056103;28;20771;-41
2022/11/15 11:11:52;;;;;;;22.83;17.98;;;11.60;99.90;;;;;;5056416;28;20167;-45
2022/11/15 11:14:26;;;;;;;21.05;17.65;;;11.70;99.90;;;;;;5056908;28;20080;-43
2022/11/15 11:17:13;;;;;;;21.98;16.58;;;11.70;99.90;;;;;;5040698;28;20052;-44
2022/11/15 11:19:41;;;;;;;18.88;16.88;;;11.70;99.90;;;;;;5046210;28;20048;-45
2022/11/15 11:22:28;;;;;;;18.55;16.20;;;11.70;99.90;;;;;;5047975;28;20200;-40
2022/11/15 11:25:22;;;;;;;15.90;14.30;;;11.70;99.90;;;;;;5036333;28;20170;-42
2022/11/15 11:28:06;;;;;;;17.52;14.68;;;11.70;99.90;;;;;;5051568;28;20546;-45
2022/11/15 11:30:44;;;;;;;;;;;11.60;99.90;;;;;;5053435;28;20131;-41
2022/11/15 11:34:17;;;;;;;17.02;14.68;;;11.60;99.90;;;;;;5043187;28;19925;-46
2022/11/15 11:37:10;;;;;;;14.82;13.05;;;11.60;99.90;;;;;;4974359;28;20134;-44
2022/11/15 11:40:00;;;;;;;14.80;12.82;;;11.60;99.90;;;;;;4974381;28;20089;-47
2022/11/15 11:42:59;;;;;;;23.77;14.00;;;11.60;99.90;;;;;;4970418;28;20112;-48
2022/11/15 11:45:50;;;;;;;15.05;12.65;;;11.50;99.90;;;;;;4974820;28;20606;-43
2022/11/15 11:48:43;;;;;;;17.80;13.73;;;11.50;99.90;;;;;;4973908;28;20050;-47
2022/11/15 11:51:17;;;;;;;18.50;13.88;;;11.40;99.90;;;;;;4973305;28;20488;-46
2022/11/15 11:53:52;;;;;;;14.48;12.93;;;11.40;99.90;;;;;;4972904;28;20899;-48
2022/11/15 11:56:28;;;;;;;19.25;13.27;;;11.50;99.90;;;;;;4969403;28;20053;-47
2022/11/15 11:59:09;;;;;;;17.50;12.90;;;11.50;99.90;;;;;;4954873;28;20058;-46
2022/11/15 12:01:42;;;;;;;19.48;14.07;;;11.60;99.90;;;;;;4971050;28;20078;-46
2022/11/15 12:04:26;;;;;;;16.33;13.27;;;11.70;99.90;;;;;;4971180;28;20545;-47
2022/11/15 12:06:59;;;;;;;13.90;12.50;;;11.90;99.90;;;;;;4971352;28;20612;-45
2022/11/15 12:09:43;;;;;;;15.43;12.05;;;12.10;99.90;;;;;;4958172;28;20524;-46
2022/11/15 12:12:24;;;;;;;13.85;11.98;;;12.10;99.90;;;;;;5010951;28;20130;-49
2022/11/15 12:14:53;;;;;;;12.85;10.88;;;12.10;99.90;;;;;;5037492;28;20372;-45
2022/11/15 12:17:26;;;;;;;10.88;8.43;;;12.20;99.90;;;;;;5017808;28;20044;-44
2022/11/15 12:19:56;;;;;;;11.10;8.98;;;12.20;99.90;;;;;;5039462;28;20142;-47
2022/11/15 12:22:47;;;;;;;11.63;9.30;;;12.30;99.90;;;;;;5047563;28;20051;-46
2022/11/15 12:25:37;;;;;;;12.05;8.80;;;12.30;99.90;;;;;;5040286;28;20408;-45
2022/11/15 12:28:46;;;;;;;12.38;9.27;;;12.20;99.90;;;;;;5053173;28;20037;-46
2022/11/15 12:31:22;;;;;;;10.38;8.27;;;12.30;99.90;;;;;;5050535;28;20142;-42
2022/11/15 12:33:49;;;;;;;11.30;8.95;;;12.20;99.90;;;;;;5053639;28;20781;-45
2022/11/15 12:36:21;;;;;;;11.50;7.13;;;12.20;99.90;;;;;;5052215;28;20044;-43
2022/11/15 12:39:20;;;;;;;8.75;6.82;;;12.20;99.90;;;;;;5035079;28;20514;-43
2022/11/15 12:41:54;;;;;;;10.25;5.93;;;12.20;99.90;;;;;;5016433;28;20061;-44
2022/11/15 12:44:35;;;;;;;8.95;6.50;;;12.20;99.90;;;;;;5031548;28;20533;-47
2022/11/15 12:47:22;;;;;;;6.78;5.97;;;12.20;99.90;;;;;;5034819;28;20538;-47
2022/11/15 12:49:48;;;;;;;8.88;6.63;;;12.20;99.90;;;;;;5034294;28;20059;-43
2022/11/15 12:52:14;;;;;;;7.45;6.35;;;12.30;99.90;;;;;;5038545;28;20147;-45
2022/11/15 12:54:40;;;;;;;8.73;5.53;;;12.20;99.90;;;;;;5033297;28;20586;-43
2022/11/15 12:57:06;;;;;;;17.80;6.50;;;12.10;99.90;;;;;;5039663;28;20052;-49
2022/11/15 12:59:50;;;;;;;6.80;5.10;;;12.10;99.90;;;;;;5031482;28;20064;-45